Time;durP1;ratioP1;P1;durP2;ratioP2;P2;SDS_P1;SDS_P2;PMS_P1;PMS_P2;Temp;Humidity;BMP_temperature;BMP_pressure;BME280_temperature;BME280_humidity;BME280_pressure;Samples;Min_cycle;Max_cycle;Signal;HPM_P1;HPM_P2
2023/04/23 00:00:11;;;;;;;1.27;0.77;;;;;;;;;;5069566;28;20055;-76
2023/04/23 00:02:37;;;;;;;1.40;0.40;;;;;;;;;;5068474;28;20396;-76
2023/04/23 00:05:07;;;;;;;0.55;0.55;;;;;;;;;;5069657;28;20408;-76
2023/04/23 00:07:34;;;;;;;0.68;0.68;;;;;;;;;;5068122;28;20098;-77
2023/04/23 00:10:02;;;;;;;0.43;0.43;;;;;;;;;;5069426;28;20111;-77
2023/04/23 00:12:29;;;;;;;3.30;0.75;;;;;;;;;;5068475;28;20560;-77
2023/04/23 00:14:55;;;;;;;0.50;0.50;;;;;;;;;;5068945;28;20043;-77
2023/04/23 00:17:21;;;;;;;1.33;0.60;;;;;;;;;;5069742;28;20103;-77
2023/04/23 00:19:47;;;;;;;0.40;0.40;;;;;;;;;;5068160;28;20072;-76
2023/04/23 00:22:15;;;;;;;1.05;0.47;;;;;;;;;;5067723;28;20119;-76
2023/04/23 00:24:41;;;;;;;0.55;0.50;;;;;;;;;;5069976;28;20303;-76
2023/04/23 00:27:07;;;;;;;0.50;0.50;;;;;;;;;;5068029;28;20672;-77
2023/04/23 00:29:33;;;;;;;1.73;0.55;;;;;;;;;;5067941;28;20223;-76
2023/04/23 00:31:59;;;;;;;0.82;0.60;;;;;;;;;;5069455;28;20188;-77
2023/04/23 00:34:26;;;;;;;0.40;0.40;;;;;;;;;;5072566;28;20025;-78
2023/04/23 00:36:52;;;;;;;0.55;0.55;;;;;;;;;;5071407;28;20175;-76
2023/04/23 00:39:18;;;;;;;1.58;1.15;;;;;;;;;;5068371;28;20119;-77
2023/04/23 00:41:44;;;;;;;0.68;0.68;;;;;;;;;;5068830;28;20028;-77
2023/04/23 00:44:10;;;;;;;0.60;0.60;;;;;;;;;;5067237;28;20058;-77
2023/04/23 00:46:37;;;;;;;0.50;0.50;;;;;;;;;;5068819;28;20793;-77
2023/04/23 00:49:03;;;;;;;1.10;0.70;;;;;;;;;;5087076;28;20028;-76
2023/04/23 00:51:30;;;;;;;1.02;0.65;;;;;;;;;;5088459;28;20019;-77
2023/04/23 00:53:56;;;;;;;1.88;0.95;;;;;;;;;;5086903;28;20120;-77
2023/04/23 00:56:24;;;;;;;0.88;0.82;;;;;;;;;;5067844;28;20493;-78
2023/04/23 00:58:51;;;;;;;1.15;1.10;;;;;;;;;;5068073;28;20095;-77
2023/04/23 01:01:19;;;;;;;0.50;0.50;;;;;;;;;;5087904;28;20040;-76
2023/04/23 01:03:46;;;;;;;0.95;0.80;;;;;;;;;;5087673;28;20062;-77
2023/04/23 01:06:12;;;;;;;3.60;0.70;;;;;;;;;;5086837;28;20040;-78
2023/04/23 01:08:38;;;;;;;0.65;0.65;;;;;;;;;;5088937;28;20115;-78
2023/04/23 01:11:04;;;;;;;0.50;0.50;;;;;;;;;;5093104;28;20150;-78
2023/04/23 01:13:31;;;;;;;0.80;0.75;;;;;;;;;;5093933;28;20032;-78
2023/04/23 01:15:57;;;;;;;2.40;1.35;;;;;;;;;;5094170;28;20047;-78
2023/04/23 01:18:23;;;;;;;0.82;0.82;;;;;;;;;;5092801;28;20503;-78
2023/04/23 01:20:49;;;;;;;0.60;0.60;;;;;;;;;;5075898;28;20052;-78
2023/04/23 01:23:16;;;;;;;4.57;1.33;;;;;;;;;;5069900;28;20036;-76
2023/04/23 01:25:43;;;;;;;1.77;0.80;;;;;;;;;;5071262;28;20032;-77
2023/04/23 01:28:09;;;;;;;0.80;0.70;;;;;;;;;;5069460;28;20027;-77
2023/04/23 01:30:35;;;;;;;0.75;0.75;;;;;;;;;;5072171;28;20032;-77
2023/04/23 01:33:02;;;;;;;0.82;0.82;;;;;;;;;;5073399;28;20040;-76
2023/04/23 01:35:28;;;;;;;0.57;0.43;;;;;;;;;;5071810;28;20611;-76
2023/04/23 01:37:55;;;;;;;0.93;0.90;;;;;;;;;;5068158;28;20135;-76
2023/04/23 01:40:21;;;;;;;1.75;1.20;;;;;;;;;;5067979;28;20052;-76
2023/04/23 01:42:48;;;;;;;2.67;1.02;;;;;;;;;;5069822;28;20421;-76
2023/04/23 01:45:14;;;;;;;1.67;0.90;;;;;;;;;;5071269;28;20043;-77
2023/04/23 01:47:41;;;;;;;2.33;1.08;;;;;;;;;;5079970;28;20024;-77
2023/04/23 01:50:07;;;;;;;3.88;1.13;;;;;;;;;;5087856;28;20024;-76
2023/04/23 01:52:34;;;;;;;1.17;0.70;;;;;;;;;;5088863;28;20027;-76
2023/04/23 01:55:01;;;;;;;0.82;0.82;;;;;;;;;;5083287;28;20093;-77
2023/04/23 01:57:27;;;;;;;1.05;0.82;;;;;;;;;;5066810;28;20024;-76
2023/04/23 02:00:13;;;;;;;0.90;0.70;;;;;;;;;;5073386;28;20031;-76
2023/04/23 02:02:41;;;;;;;2.30;0.60;;;;;;;;;;5090504;28;20039;-77
2023/04/23 02:05:11;;;;;;;4.38;1.15;;;;;;;;;;5088420;28;20039;-77
2023/04/23 02:07:37;;;;;;;1.42;0.90;;;;;;;;;;5089660;28;20032;-77
2023/04/23 02:10:03;;;;;;;1.45;0.98;;;;;;;;;;5087639;28;20172;-77
2023/04/23 02:12:29;;;;;;;0.80;0.80;;;;;;;;;;5088228;28;20400;-77
2023/04/23 02:14:55;;;;;;;0.43;0.43;;;;;;;;;;5083515;28;20026;-77
2023/04/23 02:17:21;;;;;;;3.55;0.60;;;;;;;;;;5069007;28;20033;-77
2023/04/23 02:19:48;;;;;;;1.75;1.27;;;;;;;;;;5072075;28;20504;-77
2023/04/23 02:22:14;;;;;;;0.82;0.77;;;;;;;;;;5090937;28;20027;-77
2023/04/23 02:24:40;;;;;;;1.00;0.70;;;;;;;;;;5087074;28;20024;-77
2023/04/23 02:27:07;;;;;;;0.70;0.70;;;;;;;;;;5068198;28;20355;-77
2023/04/23 02:29:33;;;;;;;1.00;0.40;;;;;;;;;;5068328;28;20728;-77
2023/04/23 02:31:59;;;;;;;1.25;1.15;;;;;;;;;;5069551;28;20024;-77
2023/04/23 02:34:25;;;;;;;0.95;0.85;;;;;;;;;;5073662;28;20480;-77
2023/04/23 02:36:51;;;;;;;0.65;0.65;;;;;;;;;;5070433;28;20029;-77
2023/04/23 02:39:17;;;;;;;0.45;0.45;;;;;;;;;;5068692;28;20055;-77
2023/04/23 02:41:43;;;;;;;0.50;0.50;;;;;;;;;;5070007;28;20107;-78
2023/04/23 02:44:09;;;;;;;0.60;0.60;;;;;;;;;;5069306;28;20428;-77
2023/04/23 02:46:36;;;;;;;0.55;0.55;;;;;;;;;;5070722;28;20531;-77
2023/04/23 02:49:02;;;;;;;0.50;0.50;;;;;;;;;;5087011;28;20024;-77
2023/04/23 02:51:28;;;;;;;3.13;0.80;;;;;;;;;;5087722;28;20031;-77
2023/04/23 02:53:55;;;;;;;0.70;0.70;;;;;;;;;;5087563;28;20035;-77
2023/04/23 02:56:21;;;;;;;0.80;0.60;;;;;;;;;;5074658;28;20047;-77
2023/04/23 02:58:47;;;;;;;0.75;0.60;;;;;;;;;;5069958;28;20029;-77
2023/04/23 03:01:12;;;;;;;0.80;0.80;;;;;;;;;;5069658;28;20036;-77
2023/04/23 03:03:39;;;;;;;0.90;0.57;;;;;;;;;;5067767;28;20041;-77
2023/04/23 03:06:05;;;;;;;4.20;0.60;;;;;;;;;;5066026;28;20033;-76
2023/04/23 03:08:32;;;;;;;0.70;0.70;;;;;;;;;;5068109;28;20031;-77
2023/04/23 03:10:57;;;;;;;0.95;0.80;;;;;;;;;;5067429;28;20036;-77
2023/04/23 03:13:24;;;;;;;0.55;0.55;;;;;;;;;;5065205;28;20055;-76
2023/04/23 03:15:51;;;;;;;0.60;0.60;;;;;;;;;;5066291;28;20051;-76
2023/04/23 03:18:17;;;;;;;1.42;1.25;;;;;;;;;;5068440;28;20036;-77
2023/04/23 03:20:43;;;;;;;1.02;0.82;;;;;;;;;;5068554;28;20049;-77
2023/04/23 03:23:09;;;;;;;0.60;0.60;;;;;;;;;;5067957;28;20031;-77
2023/04/23 03:25:35;;;;;;;0.73;0.73;;;;;;;;;;5066483;28;20159;-77
2023/04/23 03:28:01;;;;;;;1.02;0.73;;;;;;;;;;5069025;28;20380;-75
2023/04/23 03:30:27;;;;;;;0.55;0.55;;;;;;;;;;5069918;28;20033;-77
2023/04/23 03:32:55;;;;;;;0.70;0.70;;;;;;;;;;5073198;28;20512;-77
2023/04/23 03:35:21;;;;;;;0.60;0.60;;;;;;;;;;5073095;28;20024;-77
2023/04/23 03:37:47;;;;;;;0.60;0.60;;;;;;;;;;5072208;28;20025;-76
2023/04/23 03:40:14;;;;;;;0.35;0.35;;;;;;;;;;5072949;28;20035;-77
2023/04/23 03:42:40;;;;;;;0.50;0.50;;;;;;;;;;5091187;28;20028;-77
2023/04/23 03:45:06;;;;;;;0.98;0.75;;;;;;;;;;5088899;28;20380;-76
2023/04/23 03:47:32;;;;;;;2.70;0.70;;;;;;;;;;5079969;28;20031;-77
2023/04/23 03:49:58;;;;;;;0.65;0.65;;;;;;;;;;5090958;28;20036;-76
2023/04/23 03:52:25;;;;;;;0.80;0.60;;;;;;;;;;5089312;28;20020;-76
2023/04/23 03:54:51;;;;;;;0.50;0.43;;;;;;;;;;5091588;28;20472;-76
2023/04/23 03:57:17;;;;;;;0.60;0.60;;;;;;;;;;5089323;28;20020;-77
2023/04/23 03:59:43;;;;;;;0.70;0.70;;;;;;;;;;5091221;28;20039;-77
2023/04/23 04:02:09;;;;;;;0.52;0.52;;;;;;;;;;5089845;28;20036;-76
2023/04/23 04:04:38;;;;;;;4.47;0.63;;;;;;;;;;5091945;28;20099;-77
2023/04/23 04:07:06;;;;;;;0.32;0.32;;;;;;;;;;5090146;28;20032;-77
2023/04/23 04:09:32;;;;;;;0.95;0.60;;;;;;;;;;5090732;28;20050;-77
2023/04/23 04:11:58;;;;;;;1.08;1.08;;;;;;;;;;5091749;28;20036;-78
2023/04/23 04:14:24;;;;;;;1.80;0.50;;;;;;;;;;5092079;28;20072;-78
2023/04/23 04:16:50;;;;;;;0.52;0.43;;;;;;;;;;5078093;28;20423;-77
2023/04/23 04:19:16;;;;;;;1.13;0.63;;;;;;;;;;5070538;28;20055;-77
2023/04/23 04:21:42;;;;;;;1.95;1.05;;;;;;;;;;5069983;28;20036;-78
2023/04/23 04:24:10;;;;;;;0.45;0.45;;;;;;;;;;5070495;28;20043;-78
2023/04/23 04:26:36;;;;;;;0.65;0.65;;;;;;;;;;5080812;28;20024;-77
2023/04/23 04:29:02;;;;;;;0.77;0.77;;;;;;;;;;5089856;28;20028;-77
2023/04/23 04:31:28;;;;;;;2.22;0.80;;;;;;;;;;5090972;28;20118;-78
2023/04/23 04:33:54;;;;;;;0.77;0.60;;;;;;;;;;5092713;28;20028;-77
2023/04/23 04:36:21;;;;;;;0.63;0.60;;;;;;;;;;5091800;28;20065;-78
2023/04/23 04:38:48;;;;;;;2.95;1.10;;;;;;;;;;5088727;28;20146;-78
2023/04/23 04:41:14;;;;;;;0.80;0.80;;;;;;;;;;5082645;28;20576;-77
2023/04/23 04:43:42;;;;;;;0.47;0.47;;;;;;;;;;5067940;28;20067;-77
2023/04/23 04:46:10;;;;;;;0.60;0.60;;;;;;;;;;5069860;28;20043;-78
2023/04/23 04:48:36;;;;;;;3.15;0.57;;;;;;;;;;5086994;28;20048;-76
2023/04/23 04:51:02;;;;;;;0.60;0.60;;;;;;;;;;5089354;28;20028;-78
2023/04/23 04:53:28;;;;;;;0.65;0.65;;;;;;;;;;5089346;28;20016;-78
2023/04/23 04:55:54;;;;;;;0.88;0.88;;;;;;;;;;5085276;28;20033;-78
2023/04/23 04:58:21;;;;;;;2.63;0.55;;;;;;;;;;5067226;28;20032;-79
2023/04/23 05:00:50;;;;;;;0.90;0.82;;;;;;;;;;5068815;28;20084;-78
2023/04/23 05:03:17;;;;;;;0.80;0.80;;;;;;;;;;5067717;28;20380;-79
2023/04/23 05:05:44;;;;;;;0.80;0.80;;;;;;;;;;5068926;28;20024;-76
2023/04/23 05:08:10;;;;;;;0.65;0.65;;;;;;;;;;5068922;28;20637;-78
2023/04/23 05:10:36;;;;;;;0.68;0.63;;;;;;;;;;5067417;28;20044;-77
2023/04/23 05:13:02;;;;;;;2.15;0.75;;;;;;;;;;5067648;28;20370;-76
2023/04/23 05:15:28;;;;;;;0.80;0.60;;;;;;;;;;5074458;28;20019;-78
2023/04/23 05:17:54;;;;;;;0.98;0.75;;;;;;;;;;5069410;28;20046;-77
2023/04/23 05:20:20;;;;;;;0.70;0.70;;;;;;;;;;5067764;28;20551;-78
2023/04/23 05:22:47;;;;;;;0.70;0.70;;;;;;;;;;5068381;28;20492;-78
2023/04/23 05:25:13;;;;;;;1.80;0.75;;;;;;;;;;5067081;28;20055;-78
2023/04/23 05:27:39;;;;;;;0.77;0.73;;;;;;;;;;5068076;28;20029;-78
2023/04/23 05:30:08;;;;;;;0.60;0.60;;;;;;;;;;5066374;28;20384;-77
2023/04/23 05:32:34;;;;;;;0.60;0.60;;;;;;;;;;5068534;28;20025;-78
2023/04/23 05:35:02;;;;;;;1.10;1.00;;;;;;;;;;5070098;28;20020;-78
2023/04/23 05:37:28;;;;;;;0.50;0.50;;;;;;;;;;5067453;28;20036;-78
2023/04/23 05:39:54;;;;;;;1.02;0.65;;;;;;;;;;5067676;28;20040;-78
2023/04/23 05:42:20;;;;;;;0.77;0.77;;;;;;;;;;5068883;28;20078;-78
2023/04/23 05:44:46;;;;;;;1.50;0.88;;;;;;;;;;5067805;28;20388;-76
2023/04/23 05:47:13;;;;;;;1.00;0.82;;;;;;;;;;5074792;28;20104;-78
2023/04/23 05:49:39;;;;;;;2.42;1.58;;;;;;;;;;5086150;28;20032;-78
2023/04/23 05:52:05;;;;;;;1.48;1.15;;;;;;;;;;5086202;28;20028;-78
2023/04/23 05:54:31;;;;;;;3.58;1.20;;;;;;;;;;5086955;28;20428;-77
2023/04/23 05:56:57;;;;;;;0.60;0.57;;;;;;;;;;5078334;28;20146;-78
2023/04/23 05:59:24;;;;;;;0.77;0.77;;;;;;;;;;5067455;28;20028;-78
2023/04/23 06:01:50;;;;;;;1.00;1.00;;;;;;;;;;5067818;28;20480;-78
2023/04/23 06:04:16;;;;;;;0.98;0.98;;;;;;;;;;5066298;28;20024;-77
2023/04/23 06:06:42;;;;;;;1.05;1.05;;;;;;;;;;5065748;28;20039;-78
2023/04/23 06:09:08;;;;;;;0.88;0.88;;;;;;;;;;5069606;28;20021;-79
2023/04/23 06:11:37;;;;;;;0.98;0.93;;;;;;;;;;5075598;28;20028;-78
2023/04/23 06:14:03;;;;;;;1.38;1.27;;;;;;;;;;5089245;28;20063;-78
2023/04/23 06:16:30;;;;;;;0.90;0.90;;;;;;;;;;5088964;28;20127;-77
2023/04/23 06:18:56;;;;;;;0.93;0.93;;;;;;;;;;5074604;28;20040;-78
2023/04/23 06:21:26;;;;;;;0.82;0.82;;;;;;;;;;5071506;28;20488;-79
2023/04/23 06:23:52;;;;;;;0.70;0.70;;;;;;;;;;5087076;28;20093;-78
2023/04/23 06:26:18;;;;;;;1.23;0.70;;;;;;;;;;5084935;28;20077;-77
2023/04/23 06:28:45;;;;;;;0.90;0.90;;;;;;;;;;5086084;28;20063;-77
2023/04/23 06:31:11;;;;;;;0.70;0.70;;;;;;;;;;5087043;28;20091;-78
2023/04/23 06:33:37;;;;;;;3.75;1.38;;;;;;;;;;5088562;28;20055;-77
2023/04/23 06:36:03;;;;;;;0.90;0.90;;;;;;;;;;5090922;28;20020;-78
2023/04/23 06:38:29;;;;;;;1.45;1.05;;;;;;;;;;5090446;28;20016;-78
2023/04/23 06:40:55;;;;;;;0.80;0.80;;;;;;;;;;5087327;28;20048;-78
2023/04/23 06:43:21;;;;;;;0.68;0.68;;;;;;;;;;5087244;28;20407;-77
2023/04/23 06:45:48;;;;;;;1.35;0.93;;;;;;;;;;5086517;28;20063;-78
2023/04/23 06:48:15;;;;;;;1.17;0.77;;;;;;;;;;5069273;28;20127;-77
2023/04/23 06:50:41;;;;;;;0.90;0.90;;;;;;;;;;5064613;28;20040;-78
2023/04/23 06:53:07;;;;;;;1.77;0.93;;;;;;;;;;5081668;28;20031;-79
2023/04/23 06:55:33;;;;;;;0.75;0.73;;;;;;;;;;5086270;28;20102;-77
2023/04/23 06:57:59;;;;;;;1.00;0.90;;;;;;;;;;5086082;28;20020;-78
2023/04/23 07:00:26;;;;;;;2.55;1.35;;;;;;;;;;5084760;28;20842;-77
2023/04/23 07:02:52;;;;;;;1.10;1.08;;;;;;;;;;5089727;28;20411;-78
2023/04/23 07:05:18;;;;;;;1.10;1.00;;;;;;;;;;5093271;28;20028;-78
2023/04/23 07:07:44;;;;;;;0.90;0.90;;;;;;;;;;5092430;28;20072;-77
2023/04/23 07:10:11;;;;;;;1.08;1.00;;;;;;;;;;5090519;28;20027;-77
2023/04/23 07:12:37;;;;;;;0.95;0.90;;;;;;;;;;5088580;28;20334;-79
2023/04/23 07:15:04;;;;;;;1.13;1.02;;;;;;;;;;5089514;28;20032;-78
2023/04/23 07:17:30;;;;;;;0.80;0.80;;;;;;;;;;5088059;28;20035;-77
2023/04/23 07:19:56;;;;;;;0.98;0.82;;;;;;;;;;5088071;28;20130;-78
2023/04/23 07:22:23;;;;;;;2.47;1.25;;;;;;;;;;5089793;28;20027;-78
2023/04/23 07:24:49;;;;;;;2.47;0.85;;;;;;;;;;5090133;28;20016;-77
2023/04/23 07:27:15;;;;;;;1.90;0.68;;;;;;;;;;5087818;28;20452;-77
2023/04/23 07:29:41;;;;;;;0.70;0.60;;;;;;;;;;5088249;28;20036;-77
2023/04/23 07:32:07;;;;;;;0.82;0.82;;;;;;;;;;5087952;28;20150;-78
2023/04/23 07:34:35;;;;;;;2.10;0.82;;;;;;;;;;5088834;28;20462;-79
2023/04/23 07:37:01;;;;;;;0.98;0.80;;;;;;;;;;5089226;28;20043;-77
2023/04/23 07:39:27;;;;;;;1.80;0.93;;;;;;;;;;5087526;28;20028;-76
2023/04/23 07:41:53;;;;;;;0.65;0.65;;;;;;;;;;5087226;28;20104;-78
2023/04/23 07:44:20;;;;;;;0.50;0.50;;;;;;;;;;5087880;28;20384;-78
2023/04/23 07:46:46;;;;;;;0.80;0.80;;;;;;;;;;5086782;28;20495;-78
2023/04/23 07:49:11;;;;;;;0.65;0.65;;;;;;;;;;5089971;28;20032;-77
2023/04/23 07:51:37;;;;;;;0.35;0.35;;;;;;;;;;5088999;28;20032;-79
2023/04/23 07:54:04;;;;;;;0.80;0.60;;;;;;;;;;5089204;28;20111;-78
2023/04/23 07:56:31;;;;;;;0.90;0.70;;;;;;;;;;5089022;28;20476;-78
2023/04/23 07:58:57;;;;;;;0.30;0.30;;;;;;;;;;5070173;28;20040;-76
2023/04/23 08:01:24;;;;;;;0.20;0.20;;;;;;;;;;5068349;28;20032;-78
2023/04/23 08:03:50;;;;;;;0.30;0.30;;;;;;;;;;5069072;28;20058;-77
2023/04/23 08:06:17;;;;;;;2.85;0.65;;;;;;;;;;5068617;28;20032;-76
2023/04/23 08:08:43;;;;;;;0.50;0.50;;;;;;;;;;5070886;28;20035;-78
2023/04/23 08:11:10;;;;;;;0.22;0.22;;;;;;;;;;5069154;28;20028;-78
2023/04/23 08:13:36;;;;;;;0.70;0.40;;;;;;;;;;5069349;28;20424;-78
2023/04/23 08:16:02;;;;;;;0.32;0.32;;;;;;;;;;5069276;28;20033;-78
2023/04/23 08:18:28;;;;;;;0.85;0.30;;;;;;;;;;5069040;28;20543;-77
2023/04/23 08:20:58;;;;;;;0.98;0.55;;;;;;;;;;5069311;28;20095;-78
2023/04/23 08:23:24;;;;;;;0.70;0.50;;;;;;;;;;5069599;28;20056;-78
2023/04/23 08:25:50;;;;;;;0.55;0.30;;;;;;;;;;5069270;28;20021;-78
2023/04/23 08:28:17;;;;;;;0.38;0.20;;;;;;;;;;5082958;28;20103;-78
2023/04/23 08:30:43;;;;;;;1.50;0.60;;;;;;;;;;5090034;28;20054;-78
2023/04/23 08:33:09;;;;;;;0.43;0.30;;;;;;;;;;5091543;28;20032;-78
2023/04/23 08:35:35;;;;;;;0.32;0.32;;;;;;;;;;5089410;28;20044;-78
2023/04/23 08:38:01;;;;;;;0.32;0.32;;;;;;;;;;5090046;28;20075;-79
2023/04/23 08:40:30;;;;;;;0.47;0.47;;;;;;;;;;5093389;28;20066;-78
2023/04/23 08:42:56;;;;;;;0.30;0.30;;;;;;;;;;5087901;28;20020;-79
2023/04/23 08:45:22;;;;;;;0.17;0.13;;;;;;;;;;5088056;28;20446;-77
2023/04/23 08:47:48;;;;;;;0.28;0.28;;;;;;;;;;5074358;28;20035;-79
2023/04/23 08:50:16;;;;;;;0.50;0.40;;;;;;;;;;5067902;28;20388;-79
2023/04/23 08:52:46;;;;;;;0.50;0.47;;;;;;;;;;5072152;28;20126;-79
2023/04/23 08:55:14;;;;;;;0.45;0.30;;;;;;;;;;5087288;28;20030;-79
2023/04/23 08:57:41;;;;;;;0.50;0.35;;;;;;;;;;5088835;28;20031;-79
2023/04/23 09:00:10;;;;;;;0.68;0.63;;;;;;;;;;5084981;28;20488;-80
2023/04/23 09:02:37;;;;;;;1.63;0.93;;;;;;;;;;5087948;28;20050;-79
2023/04/23 09:05:03;;;;;;;0.70;0.70;;;;;;;;;;5087426;28;20100;-80
2023/04/23 09:07:30;;;;;;;0.80;0.77;;;;;;;;;;5088244;28;20061;-79
2023/04/23 09:09:56;;;;;;;2.20;1.15;;;;;;;;;;5088114;28;20039;-80
2023/04/23 09:12:22;;;;;;;0.60;0.60;;;;;;;;;;5080189;28;20025;-79
2023/04/23 09:14:50;;;;;;;0.60;0.55;;;;;;;;;;5087824;28;20036;-79
2023/04/23 09:17:17;;;;;;;1.02;0.90;;;;;;;;;;5087531;28;20107;-79
2023/04/23 09:19:45;;;;;;;1.83;1.10;;;;;;;;;;5089253;28;20044;-80
2023/04/23 09:22:11;;;;;;;0.60;0.60;;;;;;;;;;5087365;28;20024;-80
2023/04/23 09:24:42;;;;;;;1.17;0.50;;;;;;;;;;5088230;28;20118;-80
2023/04/23 09:27:08;;;;;;;1.05;0.95;;;;;;;;;;5091904;28;20024;-80
2023/04/23 09:29:34;;;;;;;0.70;0.70;;;;;;;;;;5088008;28;20078;-80
2023/04/23 09:32:08;;;;;;;0.73;0.73;;;;;;;;;;5089602;28;20027;-80
2023/04/23 09:34:35;;;;;;;1.05;0.98;;;;;;;;;;5094067;28;20077;-79
2023/04/23 09:37:02;;;;;;;0.90;0.90;;;;;;;;;;5094233;28;20109;-80
2023/04/23 09:39:28;;;;;;;0.60;0.60;;;;;;;;;;5077171;28;20103;-80
2023/04/23 09:42:02;;;;;;;1.85;0.55;;;;;;;;;;5068610;28;20036;-80
2023/04/23 09:44:30;;;;;;;1.33;0.98;;;;;;;;;;5078678;28;20099;-78
2023/04/23 09:46:56;;;;;;;0.70;0.63;;;;;;;;;;5081950;28;20445;-77
2023/04/23 09:49:23;;;;;;;4.35;0.77;;;;;;;;;;5078391;28;20103;-79
2023/04/23 09:51:49;;;;;;;1.20;1.10;;;;;;;;;;5082275;28;20056;-77
2023/04/23 09:54:17;;;;;;;1.88;0.80;;;;;;;;;;5081241;28;20035;-79
2023/04/23 09:56:43;;;;;;;1.75;0.60;;;;;;;;;;5086645;28;20107;-80
2023/04/23 09:59:22;;;;;;;1.02;0.60;;;;;;;;;;5085160;28;20028;-79
2023/04/23 10:01:48;;;;;;;0.85;0.85;;;;;;;;;;5088434;28;20032;-80
2023/04/23 10:04:18;;;;;;;0.70;0.70;;;;;;;;;;5089247;28;20031;-80
2023/04/23 10:06:44;;;;;;;1.02;0.80;;;;;;;;;;5087105;28;20294;-81
2023/04/23 10:09:11;;;;;;;1.50;0.77;;;;;;;;;;5087967;28;20433;-81
2023/04/23 10:11:37;;;;;;;2.67;1.02;;;;;;;;;;5089526;28;20496;-81
2023/04/23 10:14:03;;;;;;;0.82;0.82;;;;;;;;;;5086432;28;20042;-82
2023/04/23 10:16:29;;;;;;;2.08;0.95;;;;;;;;;;5086150;28;20118;-82
2023/04/23 10:18:57;;;;;;;3.50;0.93;;;;;;;;;;5085365;28;20024;-82
2023/04/23 10:21:28;;;;;;;1.67;0.73;;;;;;;;;;5085452;28;20048;-83
2023/04/23 10:23:54;;;;;;;0.98;0.88;;;;;;;;;;5085546;28;20024;-83
2023/04/23 10:26:22;;;;;;;0.68;0.68;;;;;;;;;;5085270;28;20066;-83
2023/04/23 10:28:50;;;;;;;0.82;0.82;;;;;;;;;;5086716;28;20085;-81
2023/04/23 10:31:19;;;;;;;2.90;0.77;;;;;;;;;;5088513;28;20028;-82
2023/04/23 10:33:49;;;;;;;1.27;1.13;;;;;;;;;;5082573;28;20020;-82
2023/04/23 10:36:16;;;;;;;1.58;1.00;;;;;;;;;;5070273;28;20008;-82
2023/04/23 10:38:43;;;;;;;14.23;1.25;;;;;;;;;;5069652;28;20032;-78
2023/04/23 10:41:09;;;;;;;1.50;1.00;;;;;;;;;;5071064;28;20032;-81
2023/04/23 10:43:35;;;;;;;1.55;1.08;;;;;;;;;;5069903;28;20021;-80
2023/04/23 10:46:01;;;;;;;0.60;0.60;;;;;;;;;;5069153;28;20435;-81
2023/04/23 10:48:27;;;;;;;1.05;0.95;;;;;;;;;;5090264;28;20032;-81
2023/04/23 10:50:58;;;;;;;4.32;1.20;;;;;;;;;;5091320;28;20024;-81
2023/04/23 10:53:25;;;;;;;2.50;1.17;;;;;;;;;;5083699;28;20476;-82
2023/04/23 10:56:04;;;;;;;1.58;1.00;;;;;;;;;;5068742;28;20028;-80
2023/04/23 10:58:47;;;;;;;0.70;0.70;;;;;;;;;;5069024;28;20081;-81
2023/04/23 11:01:13;;;;;;;1.52;0.90;;;;;;;;;;5071664;28;20067;-80
2023/04/23 11:03:41;;;;;;;1.02;1.00;;;;;;;;;;5077936;28;20027;-82
2023/04/23 11:06:08;;;;;;;1.08;0.98;;;;;;;;;;5093224;28;20062;-82
2023/04/23 11:08:37;;;;;;;1.27;1.00;;;;;;;;;;5093455;28;20147;-80
2023/04/23 11:11:03;;;;;;;;;;;;;;;;;;5094646;28;20104;-80
2023/04/23 11:13:29;;;;;;;1.50;0.98;;;;;;;;;;5090031;28;19912;-77
2023/04/23 11:16:17;;;;;;;2.05;1.10;;;;;;;;;;5093835;28;20519;-78
2023/04/23 11:18:56;;;;;;;1.50;1.40;;;;;;;;;;5091320;28;20024;-78
2023/04/23 11:21:22;;;;;;;1.02;0.95;;;;;;;;;;5097486;28;20054;-81
2023/04/23 11:23:48;;;;;;;1.77;1.38;;;;;;;;;;5096387;28;20118;-81
2023/04/23 11:26:17;;;;;;;1.17;1.10;;;;;;;;;;5096128;28;20087;-78
2023/04/23 11:28:44;;;;;;;1.55;1.20;;;;;;;;;;5096266;28;20657;-81
2023/04/23 11:31:10;;;;;;;4.13;1.30;;;;;;;;;;5099004;28;20028;-80
2023/04/23 11:33:37;;;;;;;1.33;1.00;;;;;;;;;;5099470;28;20445;-83
2023/04/23 11:36:04;;;;;;;4.72;1.30;;;;;;;;;;5098910;28;20039;-80
2023/04/23 11:38:32;;;;;;;2.15;0.93;;;;;;;;;;5096440;28;20027;-79
2023/04/23 11:41:01;;;;;;;2.20;0.90;;;;;;;;;;5075200;28;20044;-80
2023/04/23 11:43:30;;;;;;;1.55;1.23;;;;;;;;;;5068877;28;20075;-80
2023/04/23 11:45:56;;;;;;;5.37;0.73;;;;;;;;;;5068370;28;20035;-80
2023/04/23 11:48:23;;;;;;;2.13;1.20;;;;;;;;;;5082721;28;20433;-76
2023/04/23 11:50:49;;;;;;;2.13;0.93;;;;;;;;;;5080790;28;20028;-81
2023/04/23 11:53:15;;;;;;;2.80;0.88;;;;;;;;;;5101393;28;20308;-77
2023/04/23 11:55:42;;;;;;;0.68;0.60;;;;;;;;;;5094637;28;20110;-78
2023/04/23 11:58:10;;;;;;;1.75;0.55;;;;;;;;;;5088259;28;20476;-78
2023/04/23 12:00:36;;;;;;;0.93;0.82;;;;;;;;;;5088821;28;20193;-79
2023/04/23 12:03:04;;;;;;;1.42;0.70;;;;;;;;;;5069422;28;20119;-78
2023/04/23 12:05:38;;;;;;;0.77;0.68;;;;;;;;;;5084886;28;20411;-77
2023/04/23 12:08:11;;;;;;;1.45;0.75;;;;;;;;;;5082974;28;20066;-78
2023/04/23 12:10:51;;;;;;;1.48;0.85;;;;;;;;;;5091651;28;20425;-79
2023/04/23 12:13:18;;;;;;;2.15;1.00;;;;;;;;;;5090333;28;20028;-78
2023/04/23 12:15:45;;;;;;;1.08;0.55;;;;;;;;;;5071952;28;20063;-81
2023/04/23 12:18:11;;;;;;;0.75;0.75;;;;;;;;;;5073688;28;20066;-80
2023/04/23 12:20:39;;;;;;;0.75;0.73;;;;;;;;;;5067398;28;20049;-78
2023/04/23 12:23:08;;;;;;;1.13;0.90;;;;;;;;;;5100529;28;20024;-78
2023/04/23 12:25:34;;;;;;;2.10;0.90;;;;;;;;;;5071216;28;20024;-78
2023/04/23 12:28:01;;;;;;;1.33;1.00;;;;;;;;;;5065777;28;20028;-78
2023/04/23 12:30:31;;;;;;;1.50;0.52;;;;;;;;;;5068639;28;20029;-77
2023/04/23 12:33:00;;;;;;;1.40;0.95;;;;;;;;;;5086559;28;20032;-80
2023/04/23 12:35:46;;;;;;;0.63;0.63;;;;;;;;;;5090180;28;20438;-80
2023/04/23 12:38:25;;;;;;;0.50;0.50;;;;;;;;;;5076766;28;20162;-79
2023/04/23 12:40:52;;;;;;;0.53;0.50;;;;;;;;;;5086175;28;20039;-79
2023/04/23 12:43:18;;;;;;;1.85;0.80;;;;;;;;;;5087442;28;20285;-79
2023/04/23 12:45:44;;;;;;;2.25;1.00;;;;;;;;;;5086827;28;20707;-79
2023/04/23 12:48:11;;;;;;;3.60;0.88;;;;;;;;;;5076595;28;20025;-79
2023/04/23 12:50:37;;;;;;;2.47;1.83;;;;;;;;;;5082267;28;20112;-80
2023/04/23 12:53:03;;;;;;;1.80;0.95;;;;;;;;;;5087938;28;20036;-80
2023/04/23 12:55:29;;;;;;;2.25;1.05;;;;;;;;;;5086926;28;20066;-78
2023/04/23 12:57:55;;;;;;;0.70;0.70;;;;;;;;;;5086746;28;20048;-79
2023/04/23 13:00:21;;;;;;;1.13;0.90;;;;;;;;;;5084825;28;20108;-80
2023/04/23 13:02:47;;;;;;;0.98;0.60;;;;;;;;;;5085792;28;20055;-79
2023/04/23 13:05:13;;;;;;;1.88;0.82;;;;;;;;;;5087624;28;20390;-80
2023/04/23 13:07:39;;;;;;;2.17;0.82;;;;;;;;;;5082616;28;20084;-79
2023/04/23 13:10:05;;;;;;;1.48;0.82;;;;;;;;;;5091193;28;20039;-79
2023/04/23 13:12:32;;;;;;;1.90;0.88;;;;;;;;;;5091604;28;20024;-79
2023/04/23 13:14:58;;;;;;;1.15;0.70;;;;;;;;;;5088817;28;20028;-78
2023/04/23 13:17:25;;;;;;;1.15;0.93;;;;;;;;;;5107921;28;20032;-76
2023/04/23 13:19:51;;;;;;;1.88;1.13;;;;;;;;;;5098235;28;20040;-76
2023/04/23 13:22:17;;;;;;;0.75;0.75;;;;;;;;;;5097228;28;20051;-77
2023/04/23 13:24:43;;;;;;;2.92;0.63;;;;;;;;;;5100091;28;20036;-77
2023/04/23 13:27:10;;;;;;;2.47;1.20;;;;;;;;;;5097680;28;20294;-78
2023/04/23 13:29:36;;;;;;;2.00;0.80;;;;;;;;;;5086434;28;20107;-77
2023/04/23 13:32:02;;;;;;;1.42;0.80;;;;;;;;;;5076192;28;20061;-77
2023/04/23 13:34:29;;;;;;;5.10;1.20;;;;;;;;;;5090278;28;20091;-78
2023/04/23 13:36:55;;;;;;;0.80;0.80;;;;;;;;;;5089557;28;20050;-80
2023/04/23 13:39:22;;;;;;;5.35;1.40;;;;;;;;;;5092512;28;20291;-78
2023/04/23 13:41:48;;;;;;;5.32;1.27;;;;;;;;;;5087773;28;20127;-77
2023/04/23 13:44:14;;;;;;;2.53;0.80;;;;;;;;;;5087289;28;20031;-79
2023/04/23 13:46:41;;;;;;;0.82;0.82;;;;;;;;;;5088977;28;20024;-77
2023/04/23 13:49:07;;;;;;;4.88;0.73;;;;;;;;;;5088539;28;20052;-80
2023/04/23 13:51:33;;;;;;;2.05;0.80;;;;;;;;;;5092101;28;20020;-79
2023/04/23 13:53:59;;;;;;;1.20;0.70;;;;;;;;;;5089193;28;20024;-78
2023/04/23 13:56:26;;;;;;;2.50;0.88;;;;;;;;;;5075215;28;20077;-80
2023/04/23 13:58:54;;;;;;;2.67;0.90;;;;;;;;;;5070995;28;20020;-78
2023/04/23 14:01:20;;;;;;;0.75;0.75;;;;;;;;;;5066637;28;20040;-80
2023/04/23 14:03:47;;;;;;;5.18;1.33;;;;;;;;;;5074772;28;20232;-80
2023/04/23 14:06:13;;;;;;;3.03;1.30;;;;;;;;;;5069270;28;20074;-79
2023/04/23 14:08:39;;;;;;;2.38;1.20;;;;;;;;;;5074253;28;20308;-79
2023/04/23 14:11:05;;;;;;;0.82;0.60;;;;;;;;;;5073057;28;20399;-78
2023/04/23 14:13:32;;;;;;;2.45;0.80;;;;;;;;;;5084321;28;20082;-81
2023/04/23 14:15:58;;;;;;;2.05;0.80;;;;;;;;;;5075111;28;20075;-81
2023/04/23 14:18:24;;;;;;;6.03;1.35;;;;;;;;;;5072660;28;20468;-82
2023/04/23 14:20:50;;;;;;;0.60;0.60;;;;;;;;;;5088311;28;20047;-82
2023/04/23 14:23:24;;;;;;;1.27;0.60;;;;;;;;;;5086117;28;20044;-82
2023/04/23 14:25:58;;;;;;;1.17;0.40;;;;;;;;;;5092435;28;20339;-79
2023/04/23 14:28:35;;;;;;;1.17;0.70;;;;;;;;;;5087265;28;20490;-85
2023/04/23 14:31:01;;;;;;;1.25;0.50;;;;;;;;;;5090079;28;20078;-80
2023/04/23 14:33:27;;;;;;;3.05;0.40;;;;;;;;;;5086716;28;20081;-79
2023/04/23 14:35:53;;;;;;;1.70;0.40;;;;;;;;;;5082272;28;20040;-78
2023/04/23 14:38:19;;;;;;;0.73;0.50;;;;;;;;;;5087077;28;20047;-79
2023/04/23 14:40:45;;;;;;;0.47;0.47;;;;;;;;;;5086878;28;20051;-79